Time;durP1;ratioP1;P1;durP2;ratioP2;P2;SDS_P1;SDS_P2;PMS_P1;PMS_P2;Temp;Humidity;BMP_temperature;BMP_pressure;BME280_temperature;BME280_humidity;BME280_pressure;Samples;Min_cycle;Max_cycle;Signal;HPM_P1;HPM_P2
2021/09/25 00:01:37;;;;;;;10.60;4.60;;;;;;;15.24;62.45;98975.83;235783;1194;139593;-59
2021/09/25 00:06:40;;;;;;;11.30;5.30;;;;;;;15.29;62.47;98973.67;235972;1195;139840;-60
2021/09/25 00:11:44;;;;;;;11.20;5.20;;;;;;;15.34;62.46;98971.95;236133;1195;139206;-63
2021/09/25 00:16:51;;;;;;;12.90;5.80;;;;;;;15.37;62.41;98972.25;236107;1189;138595;-60
2021/09/25 00:21:56;;;;;;;12.90;5.10;;;;;;;15.37;62.45;98968.77;235734;1195;140816;-60
2021/09/25 00:27:00;;;;;;;13.40;5.60;;;;;;;15.38;62.37;98965.73;236230;1194;138497;-62
2021/09/25 00:32:03;;;;;;;13.50;4.80;;;;;;;15.38;62.30;98964.83;235999;1195;234509;-61
2021/09/25 00:37:06;;;;;;;10.60;4.70;;;;;;;15.36;62.25;98965.70;236290;1194;139035;-62
2021/09/25 00:42:10;;;;;;;9.70;4.70;;;;;;;15.34;62.14;98967.98;236175;1195;138838;-60
2021/09/25 00:47:13;;;;;;;11.60;4.80;;;;;;;15.34;62.17;98968.70;236186;1194;139428;-61
2021/09/25 00:52:16;;;;;;;14.80;5.30;;;;;;;15.36;62.10;98968.92;235892;1195;139815;-61
2021/09/25 00:57:20;;;;;;;11.20;5.50;;;;;;;15.41;62.27;98965.11;236280;1195;139357;-61
2021/09/25 01:02:24;;;;;;;14.10;4.90;;;;;;;15.46;62.07;98967.06;236379;1195;138911;-60
2021/09/25 01:07:27;;;;;;;12.10;5.30;;;;;;;15.48;61.95;98961.84;236325;1194;140124;-61
2021/09/25 01:12:31;;;;;;;11.00;5.20;;;;;;;15.50;61.97;98961.55;236091;1195;139489;-61
2021/09/25 01:17:37;;;;;;;8.80;4.70;;;;;;;15.49;61.89;98953.38;236195;1195;141639;-60
2021/09/25 01:22:40;;;;;;;8.00;4.20;;;;;;;15.45;61.87;98954.59;236204;1195;139945;-59
2021/09/25 01:27:44;;;;;;;12.00;4.40;;;;;;;15.43;62.03;98951.75;236259;1195;138713;-61
2021/09/25 01:32:48;;;;;;;11.10;4.60;;;;;;;15.44;61.80;98960.26;236358;1194;138958;-61
2021/09/25 01:37:52;;;;;;;9.90;4.30;;;;;;;15.42;61.75;98955.20;235190;1195;138831;-63
2021/09/25 01:42:56;;;;;;;9.10;4.30;;;;;;;15.43;61.85;98957.44;236015;1194;139151;-62
2021/09/25 01:47:59;;;;;;;10.80;3.70;;;;;;;15.46;61.83;98957.36;236334;1195;140870;-60
2021/09/25 01:53:02;;;;;;;10.70;4.90;;;;;;;15.53;61.93;98954.66;235801;1194;139082;-61
2021/09/25 01:58:06;;;;;;;10.90;4.40;;;;;;;15.56;62.02;98959.23;236359;1195;139081;-61
2021/09/25 02:03:12;;;;;;;16.50;5.50;;;;;;;15.58;61.84;98962.56;236212;1190;138857;-61
2021/09/25 02:08:15;;;;;;;9.30;4.50;;;;;;;15.58;61.83;98961.70;235345;1195;138605;-60
2021/09/25 02:13:19;;;;;;;12.20;5.50;;;;;;;15.57;61.71;98962.15;235997;1195;138645;-63
2021/09/25 02:18:22;;;;;;;13.00;5.60;;;;;;;15.58;61.87;98962.29;235881;1195;139303;-62
2021/09/25 02:23:32;;;;;;;10.70;5.60;;;;;;;15.54;61.98;98964.02;235992;1195;139113;-60
2021/09/25 02:28:35;;;;;;;;;;;;;;;15.46;61.81;98960.56;235977;1195;138816;-62
2021/09/25 02:33:38;;;;;;;11.40;5.50;;;;;;;15.40;61.92;98964.48;236066;1195;125028;-59
2021/09/25 02:38:41;;;;;;;13.50;5.70;;;;;;;15.36;62.12;98968.05;235863;1195;138905;-59
2021/09/25 02:43:44;;;;;;;14.00;5.90;;;;;;;15.36;62.18;98971.26;235652;1195;139942;-60
2021/09/25 02:48:47;;;;;;;12.20;5.90;;;;;;;15.38;62.31;98970.55;235962;1195;139196;-62
2021/09/25 02:53:50;;;;;;;11.50;5.70;;;;;;;15.39;62.33;98971.33;235981;1195;138630;-60
2021/09/25 02:58:53;;;;;;;13.30;5.70;;;;;;;15.41;62.41;98976.55;236148;1195;139863;-65
2021/09/25 03:04:15;;;;;;;16.20;6.40;;;;;;;15.39;62.30;98979.55;236102;1195;139438;-60
2021/09/25 03:09:18;;;;;;;12.50;6.10;;;;;;;15.36;62.53;98975.12;236155;1195;138967;-60
2021/09/25 03:14:22;;;;;;;14.90;6.40;;;;;;;15.36;62.65;98975.70;235830;1195;139525;-63
2021/09/25 03:19:25;;;;;;;13.20;6.50;;;;;;;15.35;62.59;98977.77;236357;1194;139371;-61
2021/09/25 03:24:28;;;;;;;11.00;5.80;;;;;;;15.31;62.67;98979.00;235893;1194;139185;-61
2021/09/25 03:29:32;;;;;;;11.90;6.20;;;;;;;15.29;62.73;98976.61;236310;1195;139280;-61
2021/09/25 03:34:35;;;;;;;17.20;6.60;;;;;;;15.34;62.73;98985.52;236196;1195;139443;-63
2021/09/25 03:39:38;;;;;;;12.90;6.40;;;;;;;15.35;62.71;98987.19;235978;1196;141989;-61
2021/09/25 03:44:41;;;;;;;17.40;7.20;;;;;;;15.39;63.03;98992.29;236423;1194;138837;-62
2021/09/25 03:49:44;;;;;;;14.90;6.80;;;;;;;15.41;62.96;98989.23;235828;1195;138424;-61
2021/09/25 03:54:47;;;;;;;12.00;6.40;;;;;;;15.40;63.06;98985.96;236012;1195;138597;-62
2021/09/25 03:59:50;;;;;;;13.00;6.70;;;;;;;15.38;62.98;98993.59;236317;1195;139363;-61
2021/09/25 04:04:53;;;;;;;14.70;7.30;;;;;;;15.37;63.08;98991.89;236267;1194;138927;-62
2021/09/25 04:09:57;;;;;;;13.80;6.80;;;;;;;15.33;63.18;98996.10;235743;1194;140019;-60
2021/09/25 04:15:00;;;;;;;13.10;6.10;;;;;;;15.33;63.16;99002.45;235893;1195;139322;-64
2021/09/25 04:20:05;;;;;;;12.90;6.70;;;;;;;15.38;63.40;99008.42;236100;1195;140286;-59
2021/09/25 04:25:08;;;;;;;13.80;7.20;;;;;;;15.44;63.36;99009.77;236134;1194;139060;-59
2021/09/25 04:30:12;;;;;;;15.10;6.70;;;;;;;15.45;63.36;99008.80;236192;1195;139331;-61
2021/09/25 04:35:15;;;;;;;12.90;6.50;;;;;;;15.47;63.48;99013.95;236164;1195;138971;-59
2021/09/25 04:40:18;;;;;;;14.20;7.10;;;;;;;15.46;63.41;99016.60;236197;1194;139125;-59
2021/09/25 04:45:21;;;;;;;14.40;6.20;;;;;;;15.44;63.49;99022.62;236295;1195;139022;-59
2021/09/25 04:50:29;;;;;;;14.70;6.90;;;;;;;15.43;63.49;99024.85;236094;1194;138864;-58
2021/09/25 04:55:32;;;;;;;12.60;6.00;;;;;;;15.41;63.68;99022.84;235820;1195;138609;-59
2021/09/25 05:00:35;;;;;;;13.40;6.10;;;;;;;15.42;63.48;99026.23;236095;1195;139323;-60
2021/09/25 05:05:38;;;;;;;14.60;6.80;;;;;;;15.43;63.68;99033.42;235923;1195;138932;-61
2021/09/25 05:10:42;;;;;;;14.30;5.90;;;;;;;15.46;63.69;99030.00;235940;1195;139042;-61
2021/09/25 05:15:45;;;;;;;11.40;5.90;;;;;;;15.53;63.93;99029.35;236149;1195;138731;-60
2021/09/25 05:20:49;;;;;;;10.00;5.40;;;;;;;15.61;63.92;99029.78;236407;1195;139147;-63
2021/09/25 05:25:52;;;;;;;9.60;5.80;;;;;;;15.65;63.86;99043.59;236166;1194;139328;-61
2021/09/25 05:30:55;;;;;;;11.90;6.10;;;;;;;15.68;63.86;99043.91;236050;1195;139509;-61
2021/09/25 05:35:58;;;;;;;15.60;6.40;;;;;;;15.69;63.63;99044.36;235999;1195;138848;-61
2021/09/25 05:41:02;;;;;;;13.40;5.50;;;;;;;15.71;63.58;99047.04;236281;1195;139520;-62
2021/09/25 05:46:05;;;;;;;8.00;4.90;;;;;;;15.72;63.79;99050.53;236416;1194;139836;-60
2021/09/25 05:51:10;;;;;;;9.60;4.70;;;;;;;15.77;63.78;99049.77;236249;1195;139202;-60
2021/09/25 05:56:14;;;;;;;10.50;4.20;;;;;;;15.80;63.82;99047.55;236065;1194;138840;-59
2021/09/25 06:01:17;;;;;;;8.20;4.30;;;;;;;15.83;63.57;99055.34;235777;1195;138508;-59
2021/09/25 06:06:20;;;;;;;10.10;4.80;;;;;;;15.83;63.64;99064.31;236158;1195;139725;-60
2021/09/25 06:11:23;;;;;;;7.50;4.20;;;;;;;15.83;63.75;99065.56;235799;1195;140020;-59
2021/09/25 06:16:27;;;;;;;9.40;4.10;;;;;;;15.80;63.55;99068.59;236084;1195;139206;-59
2021/09/25 06:21:32;;;;;;;9.00;3.60;;;;;;;15.82;63.66;99068.98;235916;1195;138631;-59
2021/09/25 06:26:35;;;;;;;7.40;3.90;;;;;;;15.81;63.62;99067.81;236187;1195;138261;-58
2021/09/25 06:31:38;;;;;;;7.50;3.90;;;;;;;15.83;63.57;99067.70;236231;1195;139436;-60
2021/09/25 06:36:42;;;;;;;8.60;4.00;;;;;;;15.87;63.80;99078.81;235682;1195;139144;-59
2021/09/25 06:41:45;;;;;;;7.10;3.70;;;;;;;15.95;63.85;99082.83;236034;1195;138990;-59
2021/09/25 06:46:50;;;;;;;9.00;3.90;;;;;;;16.04;63.78;99076.45;236272;1195;138788;-59
2021/09/25 06:51:53;;;;;;;9.60;3.70;;;;;;;16.12;63.74;99075.64;236259;1195;139654;-58
2021/09/25 06:56:56;;;;;;;8.60;3.70;;;;;;;16.15;63.63;99076.09;236202;1195;138886;-59
2021/09/25 07:02:00;;;;;;;6.20;3.30;;;;;;;16.18;63.63;99082.14;236214;1195;138817;-57
2021/09/25 07:07:03;;;;;;;5.10;3.50;;;;;;;16.21;63.69;99083.52;235659;1195;139311;-59
2021/09/25 07:12:08;;;;;;;8.70;3.30;;;;;;;16.23;63.83;99084.58;235241;1195;138374;-63
2021/09/25 07:17:11;;;;;;;5.40;3.60;;;;;;;16.25;63.70;99095.45;235838;1196;140145;-60
2021/09/25 07:22:14;;;;;;;5.60;3.40;;;;;;;16.31;63.86;99104.12;236273;1195;138923;-59
2021/09/25 07:27:17;;;;;;;8.00;3.70;;;;;;;16.40;63.92;99101.39;236220;1195;139770;-59
2021/09/25 07:32:20;;;;;;;5.10;3.40;;;;;;;16.47;63.83;99104.23;235999;1195;138261;-60
2021/09/25 07:37:23;;;;;;;59.30;45.70;;;;;;;16.54;63.84;99109.16;235825;1195;138355;-59
2021/09/25 07:42:26;;;;;;;22.10;15.50;;;;;;;16.62;64.11;99114.16;236157;1194;138734;-59
2021/09/25 07:47:29;;;;;;;8.40;3.80;;;;;;;16.72;64.13;99117.83;235961;1195;139118;-62
2021/09/25 07:52:32;;;;;;;6.90;3.80;;;;;;;16.77;63.83;99130.51;235890;1195;139252;-61
2021/09/25 07:57:36;;;;;;;4.70;3.30;;;;;;;16.79;63.75;99126.90;236131;1196;140385;-60
2021/09/25 08:02:43;;;;;;;73.90;55.40;;;;;;;16.84;63.83;99124.35;235927;1196;138891;-60
2021/09/25 08:07:47;;;;;;;84.40;60.90;;;;;;;16.95;64.17;99125.12;235970;1195;139264;-60
2021/09/25 08:12:50;;;;;;;10.10;5.30;;;;;;;17.06;64.01;99125.11;236277;1189;138866;-60
2021/09/25 08:17:54;;;;;;;7.40;5.40;;;;;;;17.11;63.80;99122.16;236071;1195;139999;-61
2021/09/25 08:22:57;;;;;;;9.90;5.40;;;;;;;17.15;63.93;99126.61;236243;1195;138517;-59
2021/09/25 08:28:00;;;;;;;7.30;5.50;;;;;;;17.16;63.86;99140.01;235751;1195;138185;-60
2021/09/25 08:33:04;;;;;;;7.40;4.80;;;;;;;17.18;63.84;99142.92;236342;1195;138847;-59
2021/09/25 08:38:07;;;;;;;9.60;5.40;;;;;;;17.22;64.08;99140.88;236070;1195;138940;-63
2021/09/25 08:43:10;;;;;;;10.50;5.90;;;;;;;17.26;64.02;99144.09;236340;1195;138872;-61
2021/09/25 08:48:14;;;;;;;10.00;5.80;;;;;;;17.37;64.32;99143.34;236032;1195;139232;-62
2021/09/25 08:53:17;;;;;;;11.60;6.30;;;;;;;17.43;64.26;99143.20;236132;1188;139236;-64
2021/09/25 08:58:20;;;;;;;181.30;112.00;;;;;;;17.49;64.28;99151.75;236009;1195;138589;-61
2021/09/25 09:03:34;;;;;;;12.30;7.10;;;;;;;17.59;64.47;99152.93;236439;1195;140368;-63
2021/09/25 09:08:40;;;;;;;8.80;5.80;;;;;;;17.63;64.38;99150.33;236293;1195;138672;-62
2021/09/25 09:13:46;;;;;;;10.90;6.10;;;;;;;17.68;64.33;99142.88;236053;1195;139403;-62
2021/09/25 09:18:52;;;;;;;8.80;6.30;;;;;;;17.79;64.62;99135.67;235951;1195;139183;-63
2021/09/25 09:24:05;;;;;;;17.20;11.20;;;;;;;17.92;64.74;99142.02;235731;1195;138385;-62
2021/09/25 09:29:09;;;;;;;12.60;8.70;;;;;;;18.06;64.93;99146.84;236312;1195;139260;-61
2021/09/25 09:34:16;;;;;;;9.10;6.90;;;;;;;18.15;64.64;99146.16;236236;1195;139101;-61
2021/09/25 09:39:21;;;;;;;9.50;7.30;;;;;;;18.19;64.50;99144.34;236171;1195;138510;-60
2021/09/25 09:44:30;;;;;;;10.50;7.00;;;;;;;18.21;64.42;99142.42;235888;1195;138752;-62
2021/09/25 09:49:39;;;;;;;12.10;7.20;;;;;;;18.27;64.54;99141.69;236019;1195;140103;-61
2021/09/25 09:54:45;;;;;;;10.10;7.60;;;;;;;18.39;64.52;99137.02;235555;1195;139500;-61
2021/09/25 09:59:50;;;;;;;9.00;7.70;;;;;;;18.49;64.57;99136.80;236172;1195;139101;-60
2021/09/25 10:04:54;;;;;;;12.90;8.60;;;;;;;18.54;64.33;99137.91;235638;1195;138182;-60
2021/09/25 10:09:58;;;;;;;12.50;8.00;;;;;;;18.58;64.34;99131.48;235924;1195;138697;-60
2021/09/25 10:15:03;;;;;;;9.50;7.60;;;;;;;18.61;64.25;99127.55;235735;1195;138506;-62
2021/09/25 10:20:07;;;;;;;12.50;7.00;;;;;;;18.61;64.11;99129.19;235848;1195;138343;-59
2021/09/25 10:25:13;;;;;;;12.30;7.80;;;;;;;18.63;64.27;99124.81;236197;1195;139546;-60
2021/09/25 10:30:16;;;;;;;10.80;7.90;;;;;;;18.74;64.25;99127.99;236134;1195;139404;-60
2021/09/25 10:35:23;;;;;;;11.40;7.30;;;;;;;18.81;64.25;99126.29;236164;1195;139255;-59
2021/09/25 10:40:29;;;;;;;68.10;50.10;;;;;;;18.88;64.23;99130.27;235620;1195;139035;-58
2021/09/25 10:45:37;;;;;;;12.40;8.90;;;;;;;18.94;64.13;99132.92;236181;1195;139471;-59
2021/09/25 10:51:08;;;;;;;9.20;6.90;;;;;;;18.98;63.94;99132.42;235787;1195;140222;-60
2021/09/25 10:56:14;;;;;;;11.80;7.80;;;;;;;19.04;63.82;99135.95;236156;1195;141085;-60
2021/09/25 11:01:19;;;;;;;15.00;7.90;;;;;;;19.08;63.85;99136.09;236023;1195;138846;-59
2021/09/25 11:06:23;;;;;;;;;;;;;;;19.13;63.74;99133.65;235712;1194;138919;-59
2021/09/25 11:11:51;;;;;;;10.90;7.70;;;;;;;19.19;63.62;99136.14;234607;1195;125189;-59
2021/09/25 11:17:04;;;;;;;11.40;7.80;;;;;;;19.21;63.65;99128.58;234594;1195;138549;-61
2021/09/25 11:22:35;;;;;;;8.90;6.80;;;;;;;19.21;63.41;99127.11;233527;1196;139449;-62
2021/09/25 11:28:11;;;;;;;23.30;17.00;;;;;;;19.26;63.37;99125.35;234709;1195;139125;-60
2021/09/25 11:33:25;;;;;;;9.80;7.50;;;;;;;19.31;63.32;99124.91;235627;1195;140792;-60
2021/09/25 11:38:45;;;;;;;11.70;7.60;;;;;;;19.37;63.26;99121.92;234475;1195;138882;-59
2021/09/25 11:44:10;;;;;;;8.30;6.90;;;;;;;19.45;63.30;99120.27;234586;1195;140413;-62
2021/09/25 11:49:17;;;;;;;8.40;7.00;;;;;;;19.52;63.18;99119.77;235134;1195;138536;-61
2021/09/25 11:54:20;;;;;;;9.60;7.30;;;;;;;19.56;63.09;99121.91;236626;1195;138927;-60
2021/09/25 11:59:25;;;;;;;9.40;6.50;;;;;;;19.60;63.05;99120.27;236302;1195;138353;-61
2021/09/25 12:04:41;;;;;;;11.20;7.60;;;;;;;19.66;62.83;99115.77;236290;1195;138643;-62
2021/09/25 12:09:49;;;;;;;10.20;7.30;;;;;;;19.75;62.76;99112.65;236014;1195;138347;-62
2021/09/25 12:14:54;;;;;;;11.60;6.90;;;;;;;19.86;62.84;99119.70;235658;1195;139265;-62
2021/09/25 12:20:17;;;;;;;10.50;7.20;;;;;;;19.95;62.56;99118.63;236550;1195;140705;-61
2021/09/25 12:25:21;;;;;;;9.70;6.40;;;;;;;19.97;62.29;99117.31;236501;1195;140245;-61
2021/09/25 12:30:24;;;;;;;9.50;6.40;;;;;;;19.97;62.15;99115.50;236595;1195;138596;-59
2021/09/25 12:35:27;;;;;;;8.80;6.70;;;;;;;19.99;62.11;99116.01;236232;1195;141079;-60
2021/09/25 12:40:40;;;;;;;23.20;10.90;;;;;;;20.01;61.93;99110.85;236395;1195;138020;-59
2021/09/25 12:45:43;;;;;;;7.90;6.00;;;;;;;19.95;61.78;99107.25;236230;1195;139103;-60
2021/09/25 12:50:48;;;;;;;8.40;6.20;;;;;;;19.92;61.68;99111.41;236018;1195;139369;-63
2021/09/25 12:55:51;;;;;;;105.10;64.00;;;;;;;19.89;61.81;99113.43;236073;1195;138761;-62
2021/09/25 13:00:54;;;;;;;11.50;8.80;;;;;;;19.90;61.86;99107.24;236283;1195;139374;-61
2021/09/25 13:06:12;;;;;;;10.70;6.90;;;;;;;19.93;61.92;99104.75;236101;1195;138530;-60
2021/09/25 13:11:16;;;;;;;9.40;6.10;;;;;;;20.04;62.17;99106.34;235622;1195;138340;-60
2021/09/25 13:16:19;;;;;;;11.50;6.00;;;;;;;20.15;61.94;99105.50;235985;1195;138311;-61
2021/09/25 13:21:22;;;;;;;9.80;6.20;;;;;;;20.15;61.71;99106.04;236221;1195;138538;-62
2021/09/25 13:26:26;;;;;;;10.00;6.40;;;;;;;20.13;61.56;99107.09;236398;1195;138228;-61
2021/09/25 13:31:29;;;;;;;10.10;5.90;;;;;;;20.12;61.33;99104.35;236425;1195;140356;-59
2021/09/25 13:36:32;;;;;;;11.20;5.90;;;;;;;20.09;61.29;99105.48;236201;1195;138613;-62
2021/09/25 13:41:35;;;;;;;8.40;5.90;;;;;;;20.06;61.24;99103.80;236167;1195;138439;-62
2021/09/25 13:46:39;;;;;;;8.90;5.50;;;;;;;20.04;61.18;99107.59;236295;1195;139409;-61
2021/09/25 13:51:42;;;;;;;8.50;5.30;;;;;;;20.07;61.22;99114.75;236496;1195;139021;-62
2021/09/25 13:56:45;;;;;;;9.70;6.10;;;;;;;20.10;61.05;99118.41;236564;1195;138202;-61
2021/09/25 14:01:48;;;;;;;7.30;4.90;;;;;;;20.12;61.06;99116.44;236510;1195;138168;-62
2021/09/25 14:06:52;;;;;;;9.70;5.40;;;;;;;20.13;61.01;99119.72;236386;1195;139611;-59
2021/09/25 14:11:55;;;;;;;8.40;5.60;;;;;;;20.12;61.03;99119.48;236248;1195;139111;-59
2021/09/25 14:16:58;;;;;;;10.80;6.20;;;;;;;20.11;61.11;99118.64;236023;1195;138738;-60
2021/09/25 14:22:01;;;;;;;9.00;5.80;;;;;;;20.12;61.12;99123.64;236690;1195;139617;-58
2021/09/25 14:27:08;;;;;;;284.40;201.80;;;;;;;20.14;61.20;99119.05;235842;1195;138983;-61
2021/09/25 14:32:14;;;;;;;21.40;16.10;;;;;;;20.18;61.26;99121.74;235637;1196;139840;-58
2021/09/25 14:37:17;;;;;;;9.60;5.50;;;;;;;20.21;61.11;99125.34;235915;1195;139249;-58
2021/09/25 14:42:20;;;;;;;10.60;5.90;;;;;;;20.24;61.18;99128.52;236295;1195;139450;-58
2021/09/25 14:47:23;;;;;;;14.30;5.70;;;;;;;20.28;61.11;99132.45;236061;1195;139256;-60
2021/09/25 14:52:26;;;;;;;8.40;5.90;;;;;;;20.27;60.99;99139.36;235587;1195;138667;-59
2021/09/25 14:57:38;;;;;;;8.90;5.50;;;;;;;20.26;60.90;99143.95;235791;1195;138903;-58
2021/09/25 15:02:46;;;;;;;8.90;5.50;;;;;;;20.21;60.84;99143.08;236167;1195;139755;-60
2021/09/25 15:07:50;;;;;;;9.50;5.50;;;;;;;20.16;60.83;99149.34;235700;1195;138628;-58
2021/09/25 15:12:55;;;;;;;15.00;5.70;;;;;;;20.12;60.87;99149.58;235913;1195;138963;-59
2021/09/25 15:17:58;;;;;;;10.40;5.60;;;;;;;20.07;60.91;99150.20;235889;1195;138716;-62
2021/09/25 15:23:02;;;;;;;10.60;6.20;;;;;;;20.04;60.98;99152.00;236203;1194;138192;-63
2021/09/25 15:28:05;;;;;;;8.10;5.50;;;;;;;20.00;61.14;99147.08;236111;1195;138994;-61
2021/09/25 15:33:10;;;;;;;8.10;5.10;;;;;;;20.01;61.09;99150.43;235562;1195;139456;-59
2021/09/25 15:38:14;;;;;;;;;;;;;;;20.04;61.20;99158.45;236075;1195;139639;-61
2021/09/25 15:43:17;;;;;;;46.60;34.60;;;;;;;20.08;61.39;99159.27;235814;1195;125434;-61
2021/09/25 15:48:21;;;;;;;20.10;7.30;;;;;;;20.15;61.48;99161.46;236092;1195;139214;-62
2021/09/25 15:53:24;;;;;;;10.30;6.00;;;;;;;20.20;61.50;99168.52;235496;1195;140207;-62
2021/09/25 15:58:27;;;;;;;15.00;6.70;;;;;;;20.20;61.59;99172.47;235786;1195;139009;-61
2021/09/25 16:03:30;;;;;;;11.70;6.10;;;;;;;20.21;61.65;99174.56;236300;1195;139640;-62
2021/09/25 16:08:34;;;;;;;18.90;11.70;;;;;;;20.19;61.61;99177.83;236252;1195;138833;-59
2021/09/25 16:13:38;;;;;;;12.60;6.20;;;;;;;20.16;61.30;99178.14;235418;1195;139053;-59
2021/09/25 16:18:41;;;;;;;8.90;6.20;;;;;;;20.04;61.15;99178.01;235670;1195;138907;-62
2021/09/25 16:23:46;;;;;;;9.00;5.40;;;;;;;19.94;61.12;99184.28;235818;1195;140420;-60
2021/09/25 16:28:50;;;;;;;53.70;40.60;;;;;;;19.87;61.23;99188.23;235314;1196;139485;-62
2021/09/25 16:33:53;;;;;;;15.10;8.30;;;;;;;19.88;61.43;99193.67;235998;1195;139156;-60
2021/09/25 16:38:56;;;;;;;10.30;6.30;;;;;;;19.97;61.73;99200.07;235910;1194;140902;-61
2021/09/25 16:43:59;;;;;;;8.50;5.40;;;;;;;19.96;61.66;99199.94;235882;1195;139082;-62
2021/09/25 16:49:03;;;;;;;478.90;374.50;;;;;;;19.94;61.90;99212.23;236076;1196;141056;-62
2021/09/25 16:54:07;;;;;;;24.10;18.50;;;;;;;20.05;62.46;99220.23;236201;1195;141666;-62
2021/09/25 16:59:12;;;;;;;17.40;13.20;;;;;;;20.20;62.61;99227.11;236047;1196;138809;-64
2021/09/25 17:04:15;;;;;;;17.20;11.90;;;;;;;20.28;62.51;99232.41;235952;1195;140376;-62
2021/09/25 17:09:19;;;;;;;17.70;11.60;;;;;;;20.35;62.52;99227.79;235876;1195;139779;-61
2021/09/25 17:14:22;;;;;;;14.50;9.00;;;;;;;20.43;62.44;99225.01;236156;1195;139462;-61
2021/09/25 17:19:25;;;;;;;28.50;21.90;;;;;;;20.49;62.46;99228.89;235757;1195;138586;-63
2021/09/25 17:24:30;;;;;;;16.20;11.70;;;;;;;20.52;62.46;99235.25;236275;1195;139284;-61
2021/09/25 17:29:33;;;;;;;25.20;17.30;;;;;;;20.55;62.33;99240.73;236062;1195;139427;-61
2021/09/25 17:34:37;;;;;;;21.90;15.10;;;;;;;20.55;62.33;99248.70;236232;1195;139916;-60
2021/09/25 17:39:44;;;;;;;18.70;14.00;;;;;;;20.53;62.32;99253.90;236326;1195;138780;-60
2021/09/25 17:44:48;;;;;;;17.60;12.50;;;;;;;20.51;62.27;99254.48;236108;1195;139147;-62
2021/09/25 17:49:52;;;;;;;16.00;10.10;;;;;;;20.51;62.37;99262.36;235857;1195;139221;-61
2021/09/25 17:54:55;;;;;;;15.60;10.10;;;;;;;20.50;62.29;99263.22;236021;1195;140042;-60
2021/09/25 17:59:58;;;;;;;12.50;9.20;;;;;;;20.54;62.41;99260.49;236132;1195;139599;-64
2021/09/25 18:05:02;;;;;;;20.40;15.80;;;;;;;20.53;62.20;99258.62;236330;1195;138951;-62
2021/09/25 18:10:05;;;;;;;13.30;8.50;;;;;;;20.40;61.83;99261.70;236231;1195;138975;-60
2021/09/25 18:15:10;;;;;;;114.60;17.60;;;;;;;20.24;61.62;99265.29;236113;1195;138853;-61
2021/09/25 18:20:13;;;;;;;69.60;49.00;;;;;;;20.14;62.15;99264.98;236190;1195;140358;-60
2021/09/25 18:25:17;;;;;;;15.10;10.40;;;;;;;20.05;61.96;99275.75;236280;1195;140264;-60
2021/09/25 18:30:21;;;;;;;14.30;8.50;;;;;;;19.92;61.93;99283.67;235208;1195;139575;-61
2021/09/25 18:35:25;;;;;;;14.50;9.20;;;;;;;19.80;62.02;99285.23;236016;1196;138462;-61
2021/09/25 18:40:29;;;;;;;13.30;8.70;;;;;;;19.69;62.19;99283.98;235934;1195;138807;-62
2021/09/25 18:45:33;;;;;;;17.90;8.80;;;;;;;19.60;62.22;99289.66;236242;1195;140007;-59
2021/09/25 18:50:36;;;;;;;14.70;9.40;;;;;;;19.54;62.40;99293.96;235782;1195;139220;-60
2021/09/25 18:55:39;;;;;;;16.40;9.70;;;;;;;19.51;62.49;99295.51;236089;1195;138541;-59
2021/09/25 19:00:44;;;;;;;82.10;65.80;;;;;;;19.47;62.79;99301.31;236024;1195;138918;-60
2021/09/25 19:05:50;;;;;;;16.20;10.00;;;;;;;19.48;62.91;99296.67;236071;1195;140447;-61
2021/09/25 19:10:54;;;;;;;15.80;10.60;;;;;;;19.45;62.89;99299.50;235874;1195;139067;-62
2021/09/25 19:15:59;;;;;;;14.40;10.00;;;;;;;19.38;62.89;99307.89;236223;1194;139724;-62
2021/09/25 19:21:04;;;;;;;19.50;10.00;;;;;;;19.31;62.98;99313.64;236090;1195;139840;-60
2021/09/25 19:26:07;;;;;;;15.70;11.20;;;;;;;19.26;63.00;99313.50;236098;1195;140168;-62
2021/09/25 19:31:10;;;;;;;21.80;12.30;;;;;;;19.25;63.22;99316.92;235364;1195;139059;-62
2021/09/25 19:36:13;;;;;;;24.30;13.40;;;;;;;19.21;63.34;99316.92;235767;1195;139208;-62
2021/09/25 19:41:17;;;;;;;17.00;12.10;;;;;;;19.21;63.37;99325.86;235879;1196;139540;-62
2021/09/25 19:46:20;;;;;;;22.00;12.40;;;;;;;19.21;63.60;99319.11;236200;1195;139457;-62
2021/09/25 19:51:24;;;;;;;19.80;12.70;;;;;;;19.19;63.61;99326.48;235758;1195;139128;-61
2021/09/25 19:56:27;;;;;;;24.70;13.30;;;;;;;19.15;63.58;99333.48;236075;1195;139195;-61
2021/09/25 20:01:31;;;;;;;20.50;12.20;;;;;;;19.11;63.65;99335.05;235964;1195;139028;-61
2021/09/25 20:06:34;;;;;;;19.70;12.10;;;;;;;19.09;63.81;99341.16;236280;1194;139152;-60
2021/09/25 20:11:37;;;;;;;21.00;13.50;;;;;;;19.10;63.84;99338.20;235629;1195;139250;-63
2021/09/25 20:16:41;;;;;;;20.80;13.30;;;;;;;19.11;63.78;99343.55;235755;1196;139869;-61
2021/09/25 20:21:48;;;;;;;26.90;20.30;;;;;;;19.07;63.75;99341.73;235900;1195;138923;-61
2021/09/25 20:26:51;;;;;;;26.80;17.50;;;;;;;19.05;63.84;99341.38;236049;1195;138912;-60
2021/09/25 20:31:54;;;;;;;23.10;14.80;;;;;;;19.02;63.82;99351.20;236043;1195;138950;-63
2021/09/25 20:36:58;;;;;;;68.40;51.70;;;;;;;19.00;63.88;99356.66;235990;1195;139034;-61
2021/09/25 20:42:03;;;;;;;20.40;13.90;;;;;;;18.98;63.82;99358.27;235744;1195;138989;-62
2021/09/25 20:47:13;;;;;;;21.00;13.20;;;;;;;18.96;63.84;99358.61;235821;1195;139560;-61
2021/09/25 20:52:17;;;;;;;18.70;13.50;;;;;;;18.96;63.82;99353.95;236197;1195;138765;-60
2021/09/25 20:57:20;;;;;;;23.70;14.80;;;;;;;18.94;63.88;99350.86;236160;1195;138714;-60
2021/09/25 21:02:23;;;;;;;21.40;14.50;;;;;;;18.97;64.00;99348.85;235903;1195;139710;-61
2021/09/25 21:07:26;;;;;;;21.40;14.60;;;;;;;18.94;64.00;99351.05;236200;1195;138647;-61
2021/09/25 21:12:30;;;;;;;24.90;15.00;;;;;;;18.93;63.98;99357.30;235832;1195;140000;-59
2021/09/25 21:17:33;;;;;;;26.50;16.40;;;;;;;18.88;64.01;99361.49;235850;1195;139415;-61
2021/09/25 21:22:36;;;;;;;19.40;12.70;;;;;;;18.82;64.08;99364.25;235777;1195;141000;-60
2021/09/25 21:27:41;;;;;;;18.40;12.70;;;;;;;18.77;64.27;99362.81;236161;1195;139407;-60
2021/09/25 21:32:44;;;;;;;20.20;12.90;;;;;;;18.78;64.60;99366.88;236144;1195;142762;-61
2021/09/25 21:37:47;;;;;;;19.20;13.30;;;;;;;18.78;64.63;99365.45;236177;1195;139108;-61
2021/09/25 21:42:50;;;;;;;23.50;15.20;;;;;;;18.77;64.86;99370.55;236172;1195;139630;-66
2021/09/25 21:47:53;;;;;;;23.80;14.50;;;;;;;18.80;64.85;99369.73;235902;1195;139448;-62
2021/09/25 21:52:57;;;;;;;25.00;15.50;;;;;;;18.80;64.78;99373.04;235985;1195;138845;-61
2021/09/25 21:58:04;;;;;;;21.40;14.30;;;;;;;18.75;64.90;99366.31;235835;1195;139798;-63
2021/09/25 22:03:08;;;;;;;24.00;17.30;;;;;;;18.74;64.85;99366.05;234937;1196;140978;-64
2021/09/25 22:08:15;;;;;;;26.20;16.40;;;;;;;18.72;64.90;99364.96;236007;1195;138966;-60
2021/09/25 22:13:18;;;;;;;26.60;19.50;;;;;;;18.72;65.00;99365.13;235676;1195;138568;-60
2021/09/25 22:18:22;;;;;;;29.20;19.40;;;;;;;18.74;65.08;99370.16;235533;1195;138688;-59
2021/09/25 22:23:26;;;;;;;28.30;19.00;;;;;;;18.69;64.96;99367.64;235608;1195;139741;-64
2021/09/25 22:28:30;;;;;;;32.70;22.10;;;;;;;18.63;64.93;99363.20;236181;1195;138911;-66
2021/09/25 22:33:37;;;;;;;27.30;19.00;;;;;;;18.59;64.99;99367.69;235207;1195;138991;-62
2021/09/25 22:38:42;;;;;;;29.10;19.60;;;;;;;18.60;65.05;99362.34;235893;1195;140280;-61
2021/09/25 22:43:47;;;;;;;29.40;20.80;;;;;;;18.61;65.12;99362.81;235672;1195;138876;-60
2021/09/25 22:48:50;;;;;;;30.60;21.60;;;;;;;18.60;65.22;99359.67;235953;1195;139525;-58
2021/09/25 22:53:53;;;;;;;32.40;22.70;;;;;;;18.56;65.26;99364.50;236070;1195;139203;-59
2021/09/25 22:58:57;;;;;;;31.40;21.90;;;;;;;18.51;65.31;99376.46;235935;1195;139319;-59
2021/09/25 23:04:00;;;;;;;29.70;22.10;;;;;;;18.47;65.49;99378.48;236601;1194;138946;-61